sensor_id;sensor_type;location;lat;lon;timestamp;temperature;humidity
12481;DHT22;6305;48.398;11.762;2022-07-31T00:01:38;14.50;99.90
12481;DHT22;6305;48.398;11.762;2022-07-31T00:04:05;14.50;99.90
12481;DHT22;6305;48.398;11.762;2022-07-31T00:06:32;14.60;99.90
12481;DHT22;6305;48.398;11.762;2022-07-31T00:08:59;14.70;99.90
12481;DHT22;6305;48.398;11.762;2022-07-31T00:11:26;14.80;99.90
12481;DHT22;6305;48.398;11.762;2022-07-31T00:13:52;14.80;99.90
12481;DHT22;6305;48.398;11.762;2022-07-31T00:16:19;14.70;99.90
12481;DHT22;6305;48.398;11.762;2022-07-31T00:18:47;14.60;99.90
12481;DHT22;6305;48.398;11.762;2022-07-31T00:21:14;14.50;99.90
12481;DHT22;6305;48.398;11.762;2022-07-31T00:23:40;14.50;99.90
12481;DHT22;6305;48.398;11.762;2022-07-31T00:26:07;14.40;99.90
12481;DHT22;6305;48.398;11.762;2022-07-31T00:28:35;14.30;99.90
12481;DHT22;6305;48.398;11.762;2022-07-31T00:31:02;14.30;99.90
12481;DHT22;6305;48.398;11.762;2022-07-31T00:33:29;14.20;99.90
12481;DHT22;6305;48.398;11.762;2022-07-31T00:35:57;14.20;99.90
12481;DHT22;6305;48.398;11.762;2022-07-31T00:38:23;14.20;99.90
12481;DHT22;6305;48.398;11.762;2022-07-31T00:40:51;14.10;99.90
12481;DHT22;6305;48.398;11.762;2022-07-31T00:43:17;14.10;99.90
12481;DHT22;6305;48.398;11.762;2022-07-31T00:45:45;14.00;99.90
12481;DHT22;6305;48.398;11.762;2022-07-31T00:48:12;14.00;99.90
12481;DHT22;6305;48.398;11.762;2022-07-31T00:50:39;13.90;99.90
12481;DHT22;6305;48.398;11.762;2022-07-31T00:53:07;13.90;99.90
12481;DHT22;6305;48.398;11.762;2022-07-31T00:55:34;13.80;99.90
12481;DHT22;6305;48.398;11.762;2022-07-31T00:58:00;13.80;99.90
12481;DHT22;6305;48.398;11.762;2022-07-31T01:00:27;13.80;99.90
12481;DHT22;6305;48.398;11.762;2022-07-31T01:02:54;13.80;99.90
12481;DHT22;6305;48.398;11.762;2022-07-31T01:05:21;13.80;99.90
12481;DHT22;6305;48.398;11.762;2022-07-31T01:07:47;13.70;99.90
12481;DHT22;6305;48.398;11.762;2022-07-31T01:10:24;13.70;99.90
12481;DHT22;6305;48.398;11.762;2022-07-31T01:12:58;13.70;99.90
12481;DHT22;6305;48.398;11.762;2022-07-31T01:15:28;13.60;99.90
12481;DHT22;6305;48.398;11.762;2022-07-31T01:17:57;13.60;99.90
12481;DHT22;6305;48.398;11.762;2022-07-31T01:20:25;13.60;99.90
12481;DHT22;6305;48.398;11.762;2022-07-31T01:23:16;13.50;99.90
12481;DHT22;6305;48.398;11.762;2022-07-31T01:25:57;13.50;99.90
12481;DHT22;6305;48.398;11.762;2022-07-31T01:28:42;13.40;99.90
12481;DHT22;6305;48.398;11.762;2022-07-31T01:31:15;13.40;99.90
12481;DHT22;6305;48.398;11.762;2022-07-31T01:33:47;13.40;99.90
12481;DHT22;6305;48.398;11.762;2022-07-31T01:36:16;13.30;99.90
12481;DHT22;6305;48.398;11.762;2022-07-31T01:38:46;13.30;99.90
12481;DHT22;6305;48.398;11.762;2022-07-31T01:41:17;13.30;99.90
12481;DHT22;6305;48.398;11.762;2022-07-31T01:43:52;13.20;99.90
12481;DHT22;6305;48.398;11.762;2022-07-31T01:46:20;13.20;99.90
12481;DHT22;6305;48.398;11.762;2022-07-31T01:48:48;13.20;99.90
12481;DHT22;6305;48.398;11.762;2022-07-31T01:51:18;13.10;99.90
12481;DHT22;6305;48.398;11.762;2022-07-31T01:53:46;13.10;99.90
12481;DHT22;6305;48.398;11.762;2022-07-31T01:56:16;13.10;99.90
12481;DHT22;6305;48.398;11.762;2022-07-31T01:58:44;13.10;99.90
12481;DHT22;6305;48.398;11.762;2022-07-31T02:01:14;13.10;99.90
12481;DHT22;6305;48.398;11.762;2022-07-31T02:03:42;13.10;99.90
12481;DHT22;6305;48.398;11.762;2022-07-31T02:06:11;13.10;99.90
12481;DHT22;6305;48.398;11.762;2022-07-31T02:08:39;13.10;99.90
12481;DHT22;6305;48.398;11.762;2022-07-31T02:11:07;13.00;99.90
12481;DHT22;6305;48.398;11.762;2022-07-31T02:13:34;13.00;99.90
12481;DHT22;6305;48.398;11.762;2022-07-31T02:16:03;13.00;99.90
12481;DHT22;6305;48.398;11.762;2022-07-31T02:18:32;13.00;99.90
12481;DHT22;6305;48.398;11.762;2022-07-31T02:21:00;13.00;99.90
12481;DHT22;6305;48.398;11.762;2022-07-31T02:23:26;13.00;99.90
12481;DHT22;6305;48.398;11.762;2022-07-31T02:25:53;12.90;99.90
12481;DHT22;6305;48.398;11.762;2022-07-31T02:28:20;12.80;99.90
12481;DHT22;6305;48.398;11.762;2022-07-31T02:30:48;12.80;99.90
12481;DHT22;6305;48.398;11.762;2022-07-31T02:33:19;12.80;99.90
12481;DHT22;6305;48.398;11.762;2022-07-31T02:35:49;12.70;99.90
12481;DHT22;6305;48.398;11.762;2022-07-31T02:38:19;12.70;99.90
12481;DHT22;6305;48.398;11.762;2022-07-31T02:40:46;12.70;99.90
12481;DHT22;6305;48.398;11.762;2022-07-31T02:43:14;12.70;99.90
12481;DHT22;6305;48.398;11.762;2022-07-31T02:45:42;12.70;99.90
12481;DHT22;6305;48.398;11.762;2022-07-31T02:48:09;12.70;99.90
12481;DHT22;6305;48.398;11.762;2022-07-31T02:50:37;12.70;99.90
12481;DHT22;6305;48.398;11.762;2022-07-31T02:53:05;12.60;99.90
12481;DHT22;6305;48.398;11.762;2022-07-31T02:55:32;12.60;99.90
12481;DHT22;6305;48.398;11.762;2022-07-31T02:58:00;12.60;99.90
12481;DHT22;6305;48.398;11.762;2022-07-31T03:00:28;12.70;99.90
12481;DHT22;6305;48.398;11.762;2022-07-31T03:02:55;12.80;99.90
12481;DHT22;6305;48.398;11.762;2022-07-31T03:05:22;12.90;99.90
12481;DHT22;6305;48.398;11.762;2022-07-31T03:07:49;13.00;99.90
12481;DHT22;6305;48.398;11.762;2022-07-31T03:10:17;13.20;99.90
12481;DHT22;6305;48.398;11.762;2022-07-31T03:12:46;13.30;99.90
12481;DHT22;6305;48.398;11.762;2022-07-31T03:15:16;13.30;99.90
12481;DHT22;6305;48.398;11.762;2022-07-31T03:17:44;13.40;99.90
12481;DHT22;6305;48.398;11.762;2022-07-31T03:20:13;13.40;99.90
12481;DHT22;6305;48.398;11.762;2022-07-31T03:22:40;13.50;99.90
12481;DHT22;6305;48.398;11.762;2022-07-31T03:25:09;13.60;99.90
12481;DHT22;6305;48.398;11.762;2022-07-31T03:27:37;13.70;99.90
12481;DHT22;6305;48.398;11.762;2022-07-31T03:30:05;13.80;99.90
12481;DHT22;6305;48.398;11.762;2022-07-31T03:32:32;13.80;99.90
12481;DHT22;6305;48.398;11.762;2022-07-31T03:35:00;13.90;99.90
12481;DHT22;6305;48.398;11.762;2022-07-31T03:37:27;14.00;99.90
12481;DHT22;6305;48.398;11.762;2022-07-31T03:39:53;14.00;99.90
12481;DHT22;6305;48.398;11.762;2022-07-31T03:42:20;14.10;99.90
12481;DHT22;6305;48.398;11.762;2022-07-31T03:44:49;14.00;99.90
12481;DHT22;6305;48.398;11.762;2022-07-31T03:47:16;14.10;99.90
12481;DHT22;6305;48.398;11.762;2022-07-31T03:49:43;14.00;99.90
12481;DHT22;6305;48.398;11.762;2022-07-31T03:52:10;14.00;99.90
12481;DHT22;6305;48.398;11.762;2022-07-31T03:54:37;13.90;99.90
12481;DHT22;6305;48.398;11.762;2022-07-31T03:57:04;13.90;99.90
12481;DHT22;6305;48.398;11.762;2022-07-31T03:59:32;13.90;99.90
12481;DHT22;6305;48.398;11.762;2022-07-31T04:02:01;13.90;99.90
12481;DHT22;6305;48.398;11.762;2022-07-31T04:04:28;13.90;99.90
12481;DHT22;6305;48.398;11.762;2022-07-31T04:06:55;13.90;99.90
12481;DHT22;6305;48.398;11.762;2022-07-31T04:09:21;14.00;99.90
12481;DHT22;6305;48.398;11.762;2022-07-31T04:11:48;14.10;99.90
12481;DHT22;6305;48.398;11.762;2022-07-31T04:14:15;14.20;99.90
12481;DHT22;6305;48.398;11.762;2022-07-31T04:16:42;14.40;99.90
12481;DHT22;6305;48.398;11.762;2022-07-31T04:19:10;14.50;99.90
12481;DHT22;6305;48.398;11.762;2022-07-31T04:21:37;14.60;99.90
12481;DHT22;6305;48.398;11.762;2022-07-31T04:24:04;14.70;99.90
12481;DHT22;6305;48.398;11.762;2022-07-31T04:26:32;14.80;99.90
12481;DHT22;6305;48.398;11.762;2022-07-31T04:28:58;14.90;99.90
12481;DHT22;6305;48.398;11.762;2022-07-31T04:31:25;15.00;99.90
12481;DHT22;6305;48.398;11.762;2022-07-31T04:33:52;14.90;99.90
12481;DHT22;6305;48.398;11.762;2022-07-31T04:36:20;14.90;99.90
12481;DHT22;6305;48.398;11.762;2022-07-31T04:38:47;15.00;99.90
12481;DHT22;6305;48.398;11.762;2022-07-31T04:41:14;15.00;99.90
12481;DHT22;6305;48.398;11.762;2022-07-31T04:43:41;15.10;99.90
12481;DHT22;6305;48.398;11.762;2022-07-31T04:46:09;15.20;99.90
12481;DHT22;6305;48.398;11.762;2022-07-31T04:48:36;15.30;99.90
12481;DHT22;6305;48.398;11.762;2022-07-31T04:51:03;15.40;99.90
12481;DHT22;6305;48.398;11.762;2022-07-31T04:53:31;15.50;99.90
12481;DHT22;6305;48.398;11.762;2022-07-31T04:55:58;15.50;99.90
12481;DHT22;6305;48.398;11.762;2022-07-31T04:58:42;15.60;99.90
12481;DHT22;6305;48.398;11.762;2022-07-31T05:01:09;15.80;99.90
12481;DHT22;6305;48.398;11.762;2022-07-31T05:03:36;16.00;99.90
12481;DHT22;6305;48.398;11.762;2022-07-31T05:06:09;16.10;99.90
12481;DHT22;6305;48.398;11.762;2022-07-31T05:08:37;16.30;99.90
12481;DHT22;6305;48.398;11.762;2022-07-31T05:11:05;16.50;99.90
12481;DHT22;6305;48.398;11.762;2022-07-31T05:13:52;16.70;99.90
12481;DHT22;6305;48.398;11.762;2022-07-31T05:16:20;17.00;99.90
12481;DHT22;6305;48.398;11.762;2022-07-31T05:18:47;17.20;99.90
12481;DHT22;6305;48.398;11.762;2022-07-31T05:21:15;17.50;99.90
12481;DHT22;6305;48.398;11.762;2022-07-31T05:23:46;17.70;99.90
12481;DHT22;6305;48.398;11.762;2022-07-31T05:26:13;18.00;99.90
12481;DHT22;6305;48.398;11.762;2022-07-31T05:28:40;18.30;99.90
12481;DHT22;6305;48.398;11.762;2022-07-31T05:31:08;18.40;99.90
12481;DHT22;6305;48.398;11.762;2022-07-31T05:33:35;18.40;99.90
12481;DHT22;6305;48.398;11.762;2022-07-31T05:36:03;18.60;99.90
12481;DHT22;6305;48.398;11.762;2022-07-31T05:38:30;18.70;99.90
12481;DHT22;6305;48.398;11.762;2022-07-31T05:40:58;19.10;99.90
12481;DHT22;6305;48.398;11.762;2022-07-31T05:43:25;19.70;99.90
12481;DHT22;6305;48.398;11.762;2022-07-31T05:45:52;20.20;99.90
12481;DHT22;6305;48.398;11.762;2022-07-31T05:48:18;20.80;99.90
12481;DHT22;6305;48.398;11.762;2022-07-31T05:50:47;21.50;99.90
12481;DHT22;6305;48.398;11.762;2022-07-31T05:53:14;22.20;99.90
12481;DHT22;6305;48.398;11.762;2022-07-31T05:55:42;23.00;99.90
12481;DHT22;6305;48.398;11.762;2022-07-31T05:58:10;23.40;99.90
12481;DHT22;6305;48.398;11.762;2022-07-31T06:00:38;23.20;99.90
12481;DHT22;6305;48.398;11.762;2022-07-31T06:03:05;23.10;99.90
12481;DHT22;6305;48.398;11.762;2022-07-31T06:05:32;23.00;99.90
12481;DHT22;6305;48.398;11.762;2022-07-31T06:07:59;23.00;99.90
12481;DHT22;6305;48.398;11.762;2022-07-31T06:10:26;22.90;99.90
12481;DHT22;6305;48.398;11.762;2022-07-31T06:12:53;22.90;99.90
12481;DHT22;6305;48.398;11.762;2022-07-31T06:15:22;22.80;99.90
12481;DHT22;6305;48.398;11.762;2022-07-31T06:17:49;23.00;99.90
12481;DHT22;6305;48.398;11.762;2022-07-31T06:20:16;23.30;99.90
12481;DHT22;6305;48.398;11.762;2022-07-31T06:22:42;23.50;99.90
12481;DHT22;6305;48.398;11.762;2022-07-31T06:25:10;23.50;99.70
12481;DHT22;6305;48.398;11.762;2022-07-31T06:27:38;23.40;99.30
12481;DHT22;6305;48.398;11.762;2022-07-31T06:30:07;23.50;99.30
12481;DHT22;6305;48.398;11.762;2022-07-31T06:32:36;23.50;99.00
12481;DHT22;6305;48.398;11.762;2022-07-31T06:35:04;23.50;99.00
12481;DHT22;6305;48.398;11.762;2022-07-31T06:37:31;23.30;99.00
12481;DHT22;6305;48.398;11.762;2022-07-31T06:39:57;22.90;99.50
12481;DHT22;6305;48.398;11.762;2022-07-31T06:42:25;22.50;99.90
12481;DHT22;6305;48.398;11.762;2022-07-31T06:44:53;22.10;99.90
12481;DHT22;6305;48.398;11.762;2022-07-31T06:47:22;21.70;99.90
12481;DHT22;6305;48.398;11.762;2022-07-31T06:49:51;21.60;99.90
12481;DHT22;6305;48.398;11.762;2022-07-31T06:52:18;21.60;99.90
12481;DHT22;6305;48.398;11.762;2022-07-31T06:54:45;21.80;99.90
12481;DHT22;6305;48.398;11.762;2022-07-31T06:57:12;21.80;99.90
12481;DHT22;6305;48.398;11.762;2022-07-31T06:59:39;21.70;99.90
12481;DHT22;6305;48.398;11.762;2022-07-31T07:02:06;21.90;99.90
12481;DHT22;6305;48.398;11.762;2022-07-31T07:04:33;21.90;99.90
12481;DHT22;6305;48.398;11.762;2022-07-31T07:07:01;22.00;99.90
12481;DHT22;6305;48.398;11.762;2022-07-31T07:09:28;22.00;99.90
12481;DHT22;6305;48.398;11.762;2022-07-31T07:11:55;22.20;99.90
12481;DHT22;6305;48.398;11.762;2022-07-31T07:14:22;22.40;99.90
12481;DHT22;6305;48.398;11.762;2022-07-31T07:16:49;22.40;99.90
12481;DHT22;6305;48.398;11.762;2022-07-31T07:19:15;22.50;99.90
12481;DHT22;6305;48.398;11.762;2022-07-31T07:21:43;22.80;99.90
12481;DHT22;6305;48.398;11.762;2022-07-31T07:24:11;22.90;99.90
12481;DHT22;6305;48.398;11.762;2022-07-31T07:26:38;23.00;99.90
12481;DHT22;6305;48.398;11.762;2022-07-31T07:29:04;23.20;99.90
12481;DHT22;6305;48.398;11.762;2022-07-31T07:31:31;23.40;99.90
12481;DHT22;6305;48.398;11.762;2022-07-31T07:33:59;23.70;99.90
12481;DHT22;6305;48.398;11.762;2022-07-31T07:36:26;24.20;99.90
12481;DHT22;6305;48.398;11.762;2022-07-31T07:38:54;24.40;99.90
12481;DHT22;6305;48.398;11.762;2022-07-31T07:41:23;24.50;99.80
12481;DHT22;6305;48.398;11.762;2022-07-31T07:43:50;24.70;98.70
12481;DHT22;6305;48.398;11.762;2022-07-31T07:46:17;24.70;98.20
12481;DHT22;6305;48.398;11.762;2022-07-31T07:48:44;24.70;98.70
12481;DHT22;6305;48.398;11.762;2022-07-31T07:51:10;25.30;98.70
12481;DHT22;6305;48.398;11.762;2022-07-31T07:53:38;25.90;97.40
12481;DHT22;6305;48.398;11.762;2022-07-31T07:56:05;26.90;95.00
12481;DHT22;6305;48.398;11.762;2022-07-31T07:58:33;27.20;92.50
12481;DHT22;6305;48.398;11.762;2022-07-31T08:01:00;27.80;90.90
12481;DHT22;6305;48.398;11.762;2022-07-31T08:03:27;28.00;88.10
12481;DHT22;6305;48.398;11.762;2022-07-31T08:05:54;27.90;86.00
12481;DHT22;6305;48.398;11.762;2022-07-31T08:08:20;27.90;85.10
12481;DHT22;6305;48.398;11.762;2022-07-31T08:10:47;27.90;84.60
12481;DHT22;6305;48.398;11.762;2022-07-31T08:13:14;28.00;82.90
12481;DHT22;6305;48.398;11.762;2022-07-31T08:15:42;27.30;83.20
12481;DHT22;6305;48.398;11.762;2022-07-31T08:18:09;26.90;86.50
12481;DHT22;6305;48.398;11.762;2022-07-31T08:20:36;26.60;89.40
12481;DHT22;6305;48.398;11.762;2022-07-31T08:23:03;26.50;89.40
12481;DHT22;6305;48.398;11.762;2022-07-31T08:25:30;26.70;90.10
12481;DHT22;6305;48.398;11.762;2022-07-31T08:27:57;26.60;89.50
12481;DHT22;6305;48.398;11.762;2022-07-31T08:30:23;26.70;89.70
12481;DHT22;6305;48.398;11.762;2022-07-31T08:32:52;27.30;88.40
12481;DHT22;6305;48.398;11.762;2022-07-31T08:35:19;28.40;85.10
12481;DHT22;6305;48.398;11.762;2022-07-31T08:37:45;29.60;79.20
12481;DHT22;6305;48.398;11.762;2022-07-31T08:40:12;30.80;72.80
12481;DHT22;6305;48.398;11.762;2022-07-31T08:42:39;32.80;65.90
12481;DHT22;6305;48.398;11.762;2022-07-31T08:45:07;33.90;58.80
12481;DHT22;6305;48.398;11.762;2022-07-31T08:47:34;34.50;55.00
12481;DHT22;6305;48.398;11.762;2022-07-31T08:50:03;34.50;52.90
12481;DHT22;6305;48.398;11.762;2022-07-31T08:52:33;34.60;51.30
12481;DHT22;6305;48.398;11.762;2022-07-31T08:55:00;35.40;50.00
12481;DHT22;6305;48.398;11.762;2022-07-31T08:57:31;37.10;47.40
12481;DHT22;6305;48.398;11.762;2022-07-31T08:59:58;37.80;44.50
12481;DHT22;6305;48.398;11.762;2022-07-31T09:02:25;38.50;42.50
12481;DHT22;6305;48.398;11.762;2022-07-31T09:04:52;39.50;40.20
12481;DHT22;6305;48.398;11.762;2022-07-31T09:07:20;39.90;39.50
12481;DHT22;6305;48.398;11.762;2022-07-31T09:09:47;41.30;37.30
12481;DHT22;6305;48.398;11.762;2022-07-31T09:12:14;41.10;35.60
12481;DHT22;6305;48.398;11.762;2022-07-31T09:14:51;40.80;35.80
12481;DHT22;6305;48.398;11.762;2022-07-31T09:17:30;41.90;35.50
12481;DHT22;6305;48.398;11.762;2022-07-31T09:19:56;42.80;33.60
12481;DHT22;6305;48.398;11.762;2022-07-31T09:22:26;41.80;32.60
12481;DHT22;6305;48.398;11.762;2022-07-31T09:24:53;41.10;33.10
12481;DHT22;6305;48.398;11.762;2022-07-31T09:27:27;40.30;33.30
12481;DHT22;6305;48.398;11.762;2022-07-31T09:29:55;39.70;35.10
12481;DHT22;6305;48.398;11.762;2022-07-31T09:32:22;40.40;34.90
12481;DHT22;6305;48.398;11.762;2022-07-31T09:34:49;40.20;35.00
12481;DHT22;6305;48.398;11.762;2022-07-31T09:37:18;40.30;34.70
12481;DHT22;6305;48.398;11.762;2022-07-31T09:39:49;39.20;35.30
12481;DHT22;6305;48.398;11.762;2022-07-31T09:42:17;38.60;36.10
12481;DHT22;6305;48.398;11.762;2022-07-31T09:44:45;37.90;36.10
12481;DHT22;6305;48.398;11.762;2022-07-31T09:47:20;38.80;35.70
12481;DHT22;6305;48.398;11.762;2022-07-31T09:49:52;39.10;35.00
12481;DHT22;6305;48.398;11.762;2022-07-31T09:52:20;39.60;34.70
12481;DHT22;6305;48.398;11.762;2022-07-31T09:54:58;38.60;35.00
12481;DHT22;6305;48.398;11.762;2022-07-31T09:57:25;38.00;35.90
12481;DHT22;6305;48.398;11.762;2022-07-31T09:59:52;37.00;35.80
12481;DHT22;6305;48.398;11.762;2022-07-31T10:02:19;35.70;37.50
12481;DHT22;6305;48.398;11.762;2022-07-31T10:04:46;34.80;39.00
12481;DHT22;6305;48.398;11.762;2022-07-31T10:07:15;33.90;39.60
12481;DHT22;6305;48.398;11.762;2022-07-31T10:09:43;33.10;41.50
12481;DHT22;6305;48.398;11.762;2022-07-31T10:12:13;32.70;41.90
12481;DHT22;6305;48.398;11.762;2022-07-31T10:14:43;32.00;42.30
12481;DHT22;6305;48.398;11.762;2022-07-31T10:17:10;31.80;43.70
12481;DHT22;6305;48.398;11.762;2022-07-31T10:19:41;32.20;42.90
12481;DHT22;6305;48.398;11.762;2022-07-31T10:22:11;33.10;42.00
12481;DHT22;6305;48.398;11.762;2022-07-31T10:24:44;34.20;40.30
12481;DHT22;6305;48.398;11.762;2022-07-31T10:27:14;35.10;38.90
12481;DHT22;6305;48.398;11.762;2022-07-31T10:29:43;35.10;37.70
12481;DHT22;6305;48.398;11.762;2022-07-31T10:32:10;35.20;38.70
12481;DHT22;6305;48.398;11.762;2022-07-31T10:34:37;36.00;37.00
12481;DHT22;6305;48.398;11.762;2022-07-31T10:37:10;36.80;34.50
12481;DHT22;6305;48.398;11.762;2022-07-31T10:39:44;37.20;33.80
12481;DHT22;6305;48.398;11.762;2022-07-31T10:42:23;37.20;34.00
12481;DHT22;6305;48.398;11.762;2022-07-31T10:44:56;36.80;34.00
12481;DHT22;6305;48.398;11.762;2022-07-31T10:47:23;35.60;35.40
12481;DHT22;6305;48.398;11.762;2022-07-31T10:49:51;34.90;37.50
12481;DHT22;6305;48.398;11.762;2022-07-31T10:52:26;35.30;36.90
12481;DHT22;6305;48.398;11.762;2022-07-31T10:54:53;35.80;36.60
12481;DHT22;6305;48.398;11.762;2022-07-31T10:57:25;36.20;35.60
12481;DHT22;6305;48.398;11.762;2022-07-31T10:59:52;35.40;34.70
12481;DHT22;6305;48.398;11.762;2022-07-31T11:02:30;35.10;35.30
12481;DHT22;6305;48.398;11.762;2022-07-31T11:05:11;34.50;34.90
12481;DHT22;6305;48.398;11.762;2022-07-31T11:07:39;33.70;37.40
12481;DHT22;6305;48.398;11.762;2022-07-31T11:10:14;34.00;37.70
12481;DHT22;6305;48.398;11.762;2022-07-31T11:12:43;33.50;37.50
12481;DHT22;6305;48.398;11.762;2022-07-31T11:15:21;33.10;37.10
12481;DHT22;6305;48.398;11.762;2022-07-31T11:17:49;32.80;37.60
12481;DHT22;6305;48.398;11.762;2022-07-31T11:20:21;34.30;37.30
12481;DHT22;6305;48.398;11.762;2022-07-31T11:23:00;35.90;33.70
12481;DHT22;6305;48.398;11.762;2022-07-31T11:25:29;36.80;32.70
12481;DHT22;6305;48.398;11.762;2022-07-31T11:28:08;37.90;31.30
12481;DHT22;6305;48.398;11.762;2022-07-31T11:30:46;38.80;30.70
12481;DHT22;6305;48.398;11.762;2022-07-31T11:33:14;38.20;30.40
12481;DHT22;6305;48.398;11.762;2022-07-31T11:35:40;37.30;30.90
12481;DHT22;6305;48.398;11.762;2022-07-31T11:38:07;36.20;31.50
12481;DHT22;6305;48.398;11.762;2022-07-31T11:40:34;35.00;33.50
12481;DHT22;6305;48.398;11.762;2022-07-31T11:43:06;34.10;34.80
12481;DHT22;6305;48.398;11.762;2022-07-31T11:45:37;35.10;34.70
12481;DHT22;6305;48.398;11.762;2022-07-31T11:48:13;36.40;32.30
12481;DHT22;6305;48.398;11.762;2022-07-31T11:50:40;36.90;31.10
12481;DHT22;6305;48.398;11.762;2022-07-31T11:53:08;37.60;32.10
12481;DHT22;6305;48.398;11.762;2022-07-31T11:55:43;37.60;30.00
12481;DHT22;6305;48.398;11.762;2022-07-31T11:58:12;36.00;32.30
12481;DHT22;6305;48.398;11.762;2022-07-31T12:00:45;34.90;33.10
12481;DHT22;6305;48.398;11.762;2022-07-31T12:03:12;34.20;34.40
12481;DHT22;6305;48.398;11.762;2022-07-31T12:05:42;33.70;35.40
12481;DHT22;6305;48.398;11.762;2022-07-31T12:08:10;33.80;35.10
12481;DHT22;6305;48.398;11.762;2022-07-31T12:10:37;34.00;35.00
12481;DHT22;6305;48.398;11.762;2022-07-31T12:13:09;33.90;35.30
12481;DHT22;6305;48.398;11.762;2022-07-31T12:15:38;33.70;35.30
12481;DHT22;6305;48.398;11.762;2022-07-31T12:18:05;33.10;36.10
12481;DHT22;6305;48.398;11.762;2022-07-31T12:20:33;32.60;37.40
12481;DHT22;6305;48.398;11.762;2022-07-31T12:23:01;32.40;38.10
12481;DHT22;6305;48.398;11.762;2022-07-31T12:25:38;32.00;38.50
12481;DHT22;6305;48.398;11.762;2022-07-31T12:28:07;31.90;38.70
12481;DHT22;6305;48.398;11.762;2022-07-31T12:30:34;31.70;38.50
12481;DHT22;6305;48.398;11.762;2022-07-31T12:33:07;31.70;38.20
12481;DHT22;6305;48.398;11.762;2022-07-31T12:35:35;32.40;37.70
12481;DHT22;6305;48.398;11.762;2022-07-31T12:38:02;33.40;36.60
12481;DHT22;6305;48.398;11.762;2022-07-31T12:40:29;33.60;35.30
12481;DHT22;6305;48.398;11.762;2022-07-31T12:42:55;33.50;35.40
12481;DHT22;6305;48.398;11.762;2022-07-31T12:45:32;33.70;34.80
12481;DHT22;6305;48.398;11.762;2022-07-31T12:47:59;33.80;34.50
12481;DHT22;6305;48.398;11.762;2022-07-31T12:50:29;34.00;34.30
12481;DHT22;6305;48.398;11.762;2022-07-31T12:52:58;33.80;34.10
12481;DHT22;6305;48.398;11.762;2022-07-31T12:55:26;33.70;33.30
12481;DHT22;6305;48.398;11.762;2022-07-31T12:57:53;33.60;34.40
12481;DHT22;6305;48.398;11.762;2022-07-31T13:00:21;33.40;33.80
12481;DHT22;6305;48.398;11.762;2022-07-31T13:02:48;33.10;35.00
12481;DHT22;6305;48.398;11.762;2022-07-31T13:05:15;33.10;35.60
12481;DHT22;6305;48.398;11.762;2022-07-31T13:07:43;32.80;35.10
12481;DHT22;6305;48.398;11.762;2022-07-31T13:10:10;32.80;35.20
12481;DHT22;6305;48.398;11.762;2022-07-31T13:12:36;32.70;34.70
12481;DHT22;6305;48.398;11.762;2022-07-31T13:15:04;32.80;35.00
12481;DHT22;6305;48.398;11.762;2022-07-31T13:17:30;33.20;36.00
12481;DHT22;6305;48.398;11.762;2022-07-31T13:19:57;33.40;35.10
12481;DHT22;6305;48.398;11.762;2022-07-31T13:22:24;33.50;35.00
12481;DHT22;6305;48.398;11.762;2022-07-31T13:24:52;33.50;35.40
12481;DHT22;6305;48.398;11.762;2022-07-31T13:27:19;33.40;35.20
12481;DHT22;6305;48.398;11.762;2022-07-31T13:29:45;33.20;35.70
12481;DHT22;6305;48.398;11.762;2022-07-31T13:32:12;32.90;36.30
12481;DHT22;6305;48.398;11.762;2022-07-31T13:34:39;33.00;36.80
12481;DHT22;6305;48.398;11.762;2022-07-31T13:37:06;33.30;35.80
12481;DHT22;6305;48.398;11.762;2022-07-31T13:39:33;33.80;35.60
12481;DHT22;6305;48.398;11.762;2022-07-31T13:42:00;34.50;35.80
12481;DHT22;6305;48.398;11.762;2022-07-31T13:44:27;35.90;32.40
12481;DHT22;6305;48.398;11.762;2022-07-31T13:46:54;37.00;31.30
12481;DHT22;6305;48.398;11.762;2022-07-31T13:49:21;37.70;29.60
12481;DHT22;6305;48.398;11.762;2022-07-31T13:51:48;37.30;29.10
12481;DHT22;6305;48.398;11.762;2022-07-31T13:54:14;37.30;29.40
12481;DHT22;6305;48.398;11.762;2022-07-31T13:56:41;37.70;29.60
12481;DHT22;6305;48.398;11.762;2022-07-31T13:59:09;37.90;29.20
12481;DHT22;6305;48.398;11.762;2022-07-31T14:01:36;38.20;28.60
12481;DHT22;6305;48.398;11.762;2022-07-31T14:04:04;38.30;28.50
12481;DHT22;6305;48.398;11.762;2022-07-31T14:06:30;38.30;28.40
12481;DHT22;6305;48.398;11.762;2022-07-31T14:08:58;38.20;28.60
12481;DHT22;6305;48.398;11.762;2022-07-31T14:11:24;37.90;28.00
12481;DHT22;6305;48.398;11.762;2022-07-31T14:13:51;37.20;28.40
12481;DHT22;6305;48.398;11.762;2022-07-31T14:16:19;36.60;29.00
12481;DHT22;6305;48.398;11.762;2022-07-31T14:18:46;36.00;29.80
12481;DHT22;6305;48.398;11.762;2022-07-31T14:21:12;36.10;30.20
12481;DHT22;6305;48.398;11.762;2022-07-31T14:23:39;35.80;30.60
12481;DHT22;6305;48.398;11.762;2022-07-31T14:26:06;34.60;30.90
12481;DHT22;6305;48.398;11.762;2022-07-31T14:28:32;34.30;32.50
12481;DHT22;6305;48.398;11.762;2022-07-31T14:30:59;34.70;32.30
12481;DHT22;6305;48.398;11.762;2022-07-31T14:33:27;35.30;32.40
12481;DHT22;6305;48.398;11.762;2022-07-31T14:35:54;36.40;31.30
12481;DHT22;6305;48.398;11.762;2022-07-31T14:38:21;37.50;30.00
12481;DHT22;6305;48.398;11.762;2022-07-31T14:40:48;38.20;29.20
12481;DHT22;6305;48.398;11.762;2022-07-31T14:43:14;37.80;28.40
12481;DHT22;6305;48.398;11.762;2022-07-31T14:45:41;37.70;28.70
12481;DHT22;6305;48.398;11.762;2022-07-31T14:48:08;37.40;28.80
12481;DHT22;6305;48.398;11.762;2022-07-31T14:50:38;36.70;29.40
12481;DHT22;6305;48.398;11.762;2022-07-31T14:53:07;36.30;29.40
12481;DHT22;6305;48.398;11.762;2022-07-31T14:55:34;34.80;30.30
12481;DHT22;6305;48.398;11.762;2022-07-31T14:58:01;33.50;31.80
12481;DHT22;6305;48.398;11.762;2022-07-31T15:00:28;32.40;33.50
12481;DHT22;6305;48.398;11.762;2022-07-31T15:02:55;31.60;35.30
12481;DHT22;6305;48.398;11.762;2022-07-31T15:05:22;31.30;36.50
12481;DHT22;6305;48.398;11.762;2022-07-31T15:07:50;31.10;36.80
12481;DHT22;6305;48.398;11.762;2022-07-31T15:10:17;32.00;36.80
12481;DHT22;6305;48.398;11.762;2022-07-31T15:12:43;33.10;34.80
12481;DHT22;6305;48.398;11.762;2022-07-31T15:15:10;34.20;34.50
12481;DHT22;6305;48.398;11.762;2022-07-31T15:17:37;34.80;32.90
12481;DHT22;6305;48.398;11.762;2022-07-31T15:20:06;34.20;32.90
12481;DHT22;6305;48.398;11.762;2022-07-31T15:22:33;33.50;33.60
12481;DHT22;6305;48.398;11.762;2022-07-31T15:25:02;33.20;34.40
12481;DHT22;6305;48.398;11.762;2022-07-31T15:27:29;33.40;34.60
12481;DHT22;6305;48.398;11.762;2022-07-31T15:29:55;33.40;34.40
12481;DHT22;6305;48.398;11.762;2022-07-31T15:32:23;32.90;34.70
12481;DHT22;6305;48.398;11.762;2022-07-31T15:34:49;33.40;35.20
12481;DHT22;6305;48.398;11.762;2022-07-31T15:37:16;33.20;34.70